Terminal Aerodrome Forecast
Issued by NWS

Home | Current Version | Previous Version | Text Only | Print | Product List | Glossary On
Versions: 1 2 3 4 5 6 7 8 9 10 11 12 13 14 15 16
448
FTAK31 PAJN 222327
TAFAGY
TAF
PAGY 222327Z 2300/2324 21014G24KT P6SM OVC040
     FM230500 21011KT P6SM SCT014 OVC035
      TEMPO 2305/2309 BKN014 OVC035
      AMD LTD TO CLD VIS AND WIND=

USA.gov is the U.S. government's official web portal to all federal, state and local government web resources and services.